International Virtual Aviation Organisation

Russian Federation and Kazakhstan MCD

 

Карточка аэропорта UUWW

Внимание!
Информация на этой странице в стадии наполнения.
Если вы не увидели какой-то информации, или заметили неточность - пожалуйста сообщите нам!
Спасибо!
Команда RU-STAFF
Название аэропортаВнуково
Название аэропорта (англ.)Vnukovo
Превышение686 ft. (209.1 m.)
Координаты55°35.952', 37°16.386'
Высота перехода10000 ft
Эшелон переходаFL110
Коды ответчика2101-2117
Зона ОрВДМосква РПИ (UUWV)
Данные METARUUWW 060800Z 27005MPS 9999 BKN022 M05/M10 Q1015 R24/190047 NOSIG
Проноз погоды (TAF)UUWW 060458Z 0606/0706 29003G08MPS 9999 SCT030 TXM04/0612Z TNM10/0606Z TEMPO 0606/0616 1200 SHSN FEW005 BKN016CB BECMG 0619/0621 23008G13MPS BKN007 TEMPO 0700/0706 21013G18MPS 1200 SHSN SCT004 BKN016CB
NOTAMshow/hide NOTAM
AWOS   TABLE

Информация о ВПП

ВПП Длина ВПП (м.) Покрытие Курс ВПП Частота ILS
013060Асфальтобетон13111.7
193060Асфальтобетон193111.5
063500Цементобетон58108.9
243500Цементобетон238111.1

Диспетчерские позиции

Позывной Наименование органа УВД Частота
UUWW_TWRВнуково-Вышка118.300
UUWW_GNDВнуково-Руление120.450
UUWW_GNDВнуково-Руление121.700
UUWW_DELВнуково-Деливери131.800
UUWW_DELВнуково-Деливери129.700
UUWW_APPВнуково-Прилет123.400
UUWW_D_APPВнуково-Прилет126.000
UUWW_DEPВнуково-Вылет135.175



Спутниковое изображение